Time;durP1;ratioP1;P1;durP2;ratioP2;P2;SDS_P1;SDS_P2;PMS_P1;PMS_P2;Temp;Humidity;BMP_temperature;BMP_pressure;BME280_temperature;BME280_humidity;BME280_pressure;Samples;Min_cycle;Max_cycle;Signal;HPM_P1;HPM_P2
2021/08/03 00:02:13;;;;;;;3.55;1.40;;;;;;;11.04;100.00;94827.94;5092032;28;20032;-54
2021/08/03 00:04:47;;;;;;;2.20;1.48;;;;;;;11.03;100.00;94828.22;5074471;28;20020;-52
2021/08/03 00:07:22;;;;;;;2.13;1.60;;;;;;;11.03;100.00;94820.97;5074177;28;20032;-53
2021/08/03 00:09:49;;;;;;;4.13;1.35;;;;;;;11.06;100.00;94824.16;5092440;28;20076;-56
2021/08/03 00:12:16;;;;;;;2.53;1.40;;;;;;;11.07;100.00;94815.06;5092320;28;20046;-53
2021/08/03 00:14:53;;;;;;;2.35;1.40;;;;;;;11.05;100.00;94796.56;5074603;28;20437;-53
2021/08/03 00:17:25;;;;;;;2.15;1.55;;;;;;;11.00;100.00;94791.25;5086753;28;20070;-52
2021/08/03 00:19:54;;;;;;;4.87;1.80;;;;;;;11.01;100.00;94784.81;5060367;28;20020;-52
2021/08/03 00:22:25;;;;;;;2.40;1.58;;;;;;;10.96;100.00;94774.94;5070892;28;20173;-53
2021/08/03 00:24:57;;;;;;;1.40;1.30;;;;;;;10.93;100.00;94770.09;5071980;28;20494;-51
2021/08/03 00:27:32;;;;;;;1.90;1.70;;;;;;;10.89;100.00;94766.38;5072098;28;20484;-58
2021/08/03 00:29:58;;;;;;;1.88;1.70;;;;;;;10.86;100.00;94768.81;5071804;28;20028;-54
2021/08/03 00:32:29;;;;;;;2.90;1.90;;;;;;;10.84;100.00;94761.00;5070751;28;20030;-58
2021/08/03 00:34:57;;;;;;;4.28;2.17;;;;;;;10.86;100.00;94752.72;5072090;28;20177;-58
2021/08/03 00:37:22;;;;;;;1.85;1.65;;;;;;;10.83;100.00;94747.91;5070570;28;20020;-58
2021/08/03 00:39:48;;;;;;;7.68;1.85;;;;;;;10.77;100.00;94743.66;5071873;28;20052;-58
2021/08/03 00:42:13;;;;;;;2.00;1.70;;;;;;;10.70;100.00;94742.06;5071980;28;20150;-59
2021/08/03 00:44:49;;;;;;;3.63;1.90;;;;;;;10.66;100.00;94745.56;5095680;28;20134;-54
2021/08/03 00:47:16;;;;;;;4.60;2.10;;;;;;;10.62;100.00;94739.13;5094150;28;20471;-52
2021/08/03 00:49:48;;;;;;;4.93;2.50;;;;;;;10.59;100.00;94728.97;5112182;28;20085;-60
2021/08/03 00:52:17;;;;;;;2.88;2.30;;;;;;;10.56;100.00;94721.50;5112476;28;20023;-60
2021/08/03 00:54:42;;;;;;;2.53;2.10;;;;;;;10.53;100.00;94725.53;5094127;28;20027;-60
2021/08/03 00:57:12;;;;;;;2.20;1.90;;;;;;;10.56;100.00;94713.47;5094344;28;20069;-61
2021/08/03 00:59:40;;;;;;;2.20;1.65;;;;;;;10.52;100.00;94709.69;5112251;28;20502;-60
2021/08/03 01:02:14;;;;;;;3.70;2.08;;;;;;;10.50;100.00;94706.50;5112377;28;20443;-60
2021/08/03 01:04:45;;;;;;;3.13;1.88;;;;;;;10.47;100.00;94696.34;5112279;28;20094;-60
2021/08/03 01:07:28;;;;;;;3.08;1.98;;;;;;;10.43;100.00;94683.50;5103248;28;20020;-60
2021/08/03 01:10:14;;;;;;;3.83;2.00;;;;;;;10.45;100.00;94683.25;5110816;28;20110;-60
2021/08/03 01:12:47;;;;;;;3.78;2.03;;;;;;;10.45;100.00;94681.38;5104066;28;20028;-59
2021/08/03 01:15:28;;;;;;;3.42;2.15;;;;;;;10.43;100.00;94675.47;5095810;28;20039;-58
2021/08/03 01:18:17;;;;;;;3.00;2.38;;;;;;;10.43;100.00;94674.69;5096191;28;20024;-59
2021/08/03 01:21:04;;;;;;;2.40;2.15;;;;;;;10.46;100.00;94663.41;5096938;28;20512;-60
2021/08/03 01:23:57;;;;;;;3.78;2.28;;;;;;;10.42;100.00;94657.03;5114301;28;20051;-60
2021/08/03 01:26:44;;;;;;;3.38;2.20;;;;;;;10.36;100.00;94656.22;5108297;28;20028;-58
2021/08/03 01:29:19;;;;;;;4.45;2.35;;;;;;;10.32;100.00;94652.50;5115018;28;20043;-61
2021/08/03 01:32:04;;;;;;;3.97;2.67;;;;;;;10.33;100.00;94648.75;5114833;28;20024;-60
2021/08/03 01:34:31;;;;;;;5.15;2.35;;;;;;;10.36;100.00;94626.78;5114761;28;20103;-60
2021/08/03 01:37:00;;;;;;;3.28;2.38;;;;;;;10.43;100.00;94637.19;5114420;28;20031;-60
2021/08/03 01:39:38;;;;;;;3.80;2.47;;;;;;;10.42;100.00;94625.69;5096328;28;20026;-60
2021/08/03 01:42:12;;;;;;;4.60;2.58;;;;;;;10.34;100.00;94622.78;5092241;28;20628;-60
2021/08/03 01:44:42;;;;;;;3.20;2.60;;;;;;;10.27;100.00;94623.06;5114696;28;20463;-60
2021/08/03 01:47:08;;;;;;;3.72;2.78;;;;;;;10.25;100.00;94608.34;5095944;28;20024;-60
2021/08/03 01:49:45;;;;;;;6.38;2.67;;;;;;;10.32;100.00;94604.31;5110819;28;20031;-60
2021/08/03 01:52:14;;;;;;;4.18;2.67;;;;;;;10.37;100.00;94593.56;5094124;28;20432;-60
2021/08/03 01:54:45;;;;;;;5.15;3.03;;;;;;;10.38;100.00;94597.84;5092981;28;20083;-60
2021/08/03 01:57:17;;;;;;;4.15;2.92;;;;;;;10.37;100.00;94592.78;5093822;28;20028;-60
2021/08/03 01:59:45;;;;;;;4.35;3.15;;;;;;;10.34;100.00;94588.78;5092828;28;20831;-60
2021/08/03 02:02:11;;;;;;;4.07;3.20;;;;;;;10.31;100.00;94583.16;5092799;28;20069;-60
2021/08/03 02:04:41;;;;;;;5.65;3.13;;;;;;;10.27;100.00;94585.59;5093867;28;20016;-60
2021/08/03 02:07:15;;;;;;;3.78;2.80;;;;;;;10.25;100.00;94570.88;5093306;28;20024;-60
2021/08/03 02:09:44;;;;;;;5.10;2.80;;;;;;;10.23;100.00;94563.13;5082179;28;20085;-60
2021/08/03 02:12:11;;;;;;;5.65;3.05;;;;;;;10.20;100.00;94558.28;5092516;28;20063;-60
2021/08/03 02:14:40;;;;;;;6.40;3.17;;;;;;;10.17;100.00;94551.59;5093811;28;20027;-60
2021/08/03 02:17:06;;;;;;;4.05;3.05;;;;;;;10.12;100.00;94542.81;5085924;28;20016;-60
2021/08/03 02:19:31;;;;;;;3.70;3.10;;;;;;;10.09;100.00;94541.50;5093452;28;20494;-60
2021/08/03 02:22:20;;;;;;;5.47;3.00;;;;;;;10.10;100.00;94537.75;5092295;28;20016;-60
2021/08/03 02:24:46;;;;;;;3.25;2.83;;;;;;;10.08;100.00;94528.38;5092651;28;20028;-60
2021/08/03 02:27:15;;;;;;;3.55;2.90;;;;;;;10.04;100.00;94530.00;5093045;28;20107;-60
2021/08/03 02:29:43;;;;;;;4.35;2.95;;;;;;;10.01;100.00;94522.53;5093352;28;20476;-60
2021/08/03 02:32:32;;;;;;;4.65;3.30;;;;;;;10.03;100.00;94510.47;5093465;28;20028;-60
2021/08/03 02:35:04;;;;;;;5.82;3.15;;;;;;;10.03;100.00;94510.47;5093332;28;20024;-60
2021/08/03 02:37:36;;;;;;;7.75;3.30;;;;;;;9.99;100.00;94489.91;5091706;28;20024;-60
2021/08/03 02:40:09;;;;;;;4.72;3.53;;;;;;;9.97;100.00;94492.84;5093075;28;20028;-60
2021/08/03 02:42:45;;;;;;;4.85;3.20;;;;;;;9.94;100.00;94481.88;5093130;28;20060;-60
2021/08/03 02:45:17;;;;;;;4.43;3.25;;;;;;;9.91;100.00;94475.22;5109661;28;20039;-60
2021/08/03 02:50:21;;;;;;;3.38;2.97;;;;;;;9.90;100.00;94467.47;5113568;28;20080;-60
2021/08/03 02:52:53;;;;;;;4.10;3.42;;;;;;;9.92;100.00;94458.09;5095100;28;20031;-60
2021/08/03 02:55:25;;;;;;;4.13;2.97;;;;;;;9.94;100.00;94455.13;5113392;28;20131;-60
2021/08/03 02:58:07;;;;;;;6.17;3.50;;;;;;;9.94;100.00;94449.78;5112766;28;20107;-60
2021/08/03 03:00:36;;;;;;;4.40;3.38;;;;;;;9.93;100.00;94454.34;5113233;28;20279;-60
2021/08/03 03:03:10;;;;;;;3.83;3.08;;;;;;;9.93;100.00;94443.63;5113026;28;20041;-60
2021/08/03 03:05:41;;;;;;;6.28;3.28;;;;;;;9.88;100.00;94444.47;5113332;28;20028;-60
2021/08/03 03:08:16;;;;;;;3.88;3.17;;;;;;;9.90;100.00;94435.38;5112466;28;20028;-60
2021/08/03 03:10:50;;;;;;;3.70;2.95;;;;;;;9.90;100.00;94427.34;5093516;28;20028;-60
2021/08/03 03:13:24;;;;;;;5.20;3.10;;;;;;;9.86;100.00;94422.53;5092702;28;20386;-60
2021/08/03 03:15:54;;;;;;;3.95;3.35;;;;;;;9.84;100.00;94419.34;5098619;28;20019;-60
2021/08/03 03:18:21;;;;;;;4.32;3.20;;;;;;;9.84;100.00;94421.22;5112494;28;20016;-60
2021/08/03 03:20:52;;;;;;;9.38;3.70;;;;;;;9.84;100.00;94413.19;5094485;28;20118;-60
2021/08/03 03:23:23;;;;;;;4.68;3.60;;;;;;;9.82;100.00;94408.13;5112741;28;20027;-60
2021/08/03 03:25:53;;;;;;;4.90;3.03;;;;;;;9.82;100.00;94400.09;5094421;28;20019;-60
2021/08/03 03:28:27;;;;;;;4.25;3.10;;;;;;;9.81;100.00;94397.72;5093857;28;20027;-59
2021/08/03 03:30:56;;;;;;;5.22;3.53;;;;;;;9.83;100.00;94408.91;5094594;28;20055;-57
2021/08/03 03:33:23;;;;;;;4.82;3.22;;;;;;;9.84;100.00;94397.94;5094222;28;20423;-58
2021/08/03 03:35:53;;;;;;;4.53;3.20;;;;;;;9.85;100.00;94402.22;5112505;28;20023;-58
2021/08/03 03:38:23;;;;;;;4.60;3.55;;;;;;;9.82;100.00;94397.41;5093808;28;20100;-59
2021/08/03 03:40:49;;;;;;;5.22;3.75;;;;;;;9.85;100.00;94401.41;5112202;28;20386;-58
2021/08/03 03:43:20;;;;;;;4.40;3.15;;;;;;;9.85;100.00;94404.09;5112148;28;20027;-61
2021/08/03 03:45:54;;;;;;;5.25;3.30;;;;;;;9.90;100.00;94396.06;5094556;28;20019;-60
2021/08/03 03:48:21;;;;;;;6.35;3.65;;;;;;;9.93;100.00;94394.69;5111946;28;20027;-60
2021/08/03 03:51:01;;;;;;;6.38;3.47;;;;;;;9.92;100.00;94391.22;5093913;28;20020;-58
2021/08/03 03:53:35;;;;;;;8.30;3.60;;;;;;;9.96;100.00;94388.78;5112178;28;20027;-59
2021/08/03 03:56:07;;;;;;;6.10;3.50;;;;;;;9.97;100.00;94387.69;5112099;28;20027;-60
2021/08/03 03:58:37;;;;;;;5.80;3.85;;;;;;;9.97;100.00;94385.03;5093849;28;20032;-60
2021/08/03 04:01:06;;;;;;;5.38;3.03;;;;;;;9.98;100.00;94384.75;5111982;28;20028;-60
2021/08/03 04:03:37;;;;;;;3.80;2.90;;;;;;;9.99;100.00;94383.69;5111959;28;20028;-60
2021/08/03 04:06:10;;;;;;;4.50;3.30;;;;;;;10.03;100.00;94371.34;5111967;28;20020;-60
2021/08/03 04:08:41;;;;;;;4.18;3.33;;;;;;;10.04;100.00;94372.16;5110236;28;20102;-60
2021/08/03 04:11:06;;;;;;;4.22;2.92;;;;;;;10.03;100.00;94367.88;5078651;28;20067;-60
2021/08/03 04:13:41;;;;;;;5.65;3.30;;;;;;;10.07;100.00;94361.69;5091639;28;20120;-60
2021/08/03 04:16:06;;;;;;;6.68;3.97;;;;;;;10.11;100.00;94348.56;5101706;22;20064;-59
2021/08/03 04:18:41;;;;;;;4.90;3.72;;;;;;;10.13;100.00;94343.72;5070410;28;20055;-60
2021/08/03 04:21:15;;;;;;;5.47;3.47;;;;;;;10.15;100.00;94344.22;5053211;28;20394;-60
2021/08/03 04:23:41;;;;;;;5.57;3.47;;;;;;;10.14;100.00;94348.78;5074546;28;20028;-58
2021/08/03 04:26:06;;;;;;;5.40;3.67;;;;;;;10.14;100.00;94346.09;5081057;28;20031;-57
2021/08/03 04:28:35;;;;;;;7.00;3.70;;;;;;;10.17;100.00;94350.09;5073938;28;20024;-60
2021/08/03 04:31:00;;;;;;;4.88;3.30;;;;;;;10.15;100.00;94350.38;5074715;28;20031;-60
2021/08/03 04:33:27;;;;;;;5.20;3.33;;;;;;;10.18;100.00;94349.81;5089521;28;20024;-56
2021/08/03 04:35:52;;;;;;;6.60;3.50;;;;;;;10.24;100.00;94336.44;5092112;28;20106;-57
2021/08/03 04:38:23;;;;;;;5.10;3.38;;;;;;;10.28;100.00;94340.94;5092623;28;20056;-56
2021/08/03 04:40:48;;;;;;;4.65;3.30;;;;;;;10.31;100.00;94340.41;5092212;28;20024;-58
2021/08/03 04:43:13;;;;;;;8.07;3.58;;;;;;;10.31;100.00;94334.22;5092009;28;20111;-59
2021/08/03 04:45:42;;;;;;;4.45;3.25;;;;;;;10.33;100.00;94326.72;5092125;28;20020;-56
2021/08/03 04:48:14;;;;;;;4.78;3.25;;;;;;;10.33;100.00;94319.50;5095507;28;20024;-58
2021/08/03 04:50:40;;;;;;;8.80;3.65;;;;;;;10.38;100.00;94318.63;5089717;28;20025;-61
2021/08/03 04:53:10;;;;;;;7.95;3.80;;;;;;;10.41;100.00;94323.41;5075331;28;20032;-61
2021/08/03 04:55:35;;;;;;;6.97;3.72;;;;;;;10.47;100.00;94324.97;5095934;28;20111;-61
2021/08/03 04:58:04;;;;;;;6.22;3.30;;;;;;;10.55;100.00;94315.53;5095907;28;20112;-61
2021/08/03 05:00:32;;;;;;;4.40;3.38;;;;;;;10.60;100.00;94316.28;5096006;28;20034;-61
2021/08/03 05:03:01;;;;;;;6.20;3.88;;;;;;;10.65;100.00;94304.72;5095838;28;20027;-61
2021/08/03 05:05:39;;;;;;;7.00;3.60;;;;;;;10.70;100.00;94299.31;5095674;28;20111;-61
2021/08/03 05:08:05;;;;;;;10.90;3.85;;;;;;;10.74;100.00;94300.31;5095623;28;20016;-61
2021/08/03 05:10:36;;;;;;;6.18;3.63;;;;;;;10.79;100.00;94296.81;5096113;28;20097;-61
2021/08/03 05:13:01;;;;;;;5.38;4.05;;;;;;;10.80;100.00;94299.19;5077596;28;20036;-61
2021/08/03 05:15:27;;;;;;;4.13;3.25;;;;;;;10.82;100.00;94293.56;5077376;28;20035;-60
2021/08/03 05:17:58;;;;;;;6.25;3.72;;;;;;;10.87;100.00;94291.63;5088339;28;20047;-61
2021/08/03 05:20:28;;;;;;;6.22;3.85;;;;;;;10.97;100.00;94278.13;5089921;28;20059;-60
2021/08/03 05:22:54;;;;;;;7.47;3.80;;;;;;;11.01;100.00;94283.69;5095534;28;20306;-61
2021/08/03 05:25:19;;;;;;;4.45;3.55;;;;;;;11.05;100.00;94282.03;5068320;28;20047;-61
2021/08/03 05:27:45;;;;;;;5.47;3.88;;;;;;;11.10;100.00;94281.19;5095236;28;20012;-59
2021/08/03 05:30:11;;;;;;;4.53;3.70;;;;;;;11.15;100.00;94265.00;5095729;28;20566;-59
2021/08/03 05:32:36;;;;;;;4.40;3.70;;;;;;;11.20;100.00;94271.13;5095182;28;20028;-60
2021/08/03 05:35:03;;;;;;;4.95;3.58;;;;;;;11.26;100.00;94264.59;5095212;28;20048;-59
2021/08/03 05:37:29;;;;;;;5.50;3.90;;;;;;;11.36;100.00;94257.50;5094943;28;20031;-59
2021/08/03 05:39:55;;;;;;;7.20;4.72;;;;;;;11.45;100.00;94250.41;5095224;28;20020;-60
2021/08/03 05:42:37;;;;;;;5.80;4.38;;;;;;;11.56;100.00;94238.44;5095167;28;20513;-56
2021/08/03 05:45:03;;;;;;;6.88;4.53;;;;;;;11.71;100.00;94222.09;5079520;28;20032;-59
2021/08/03 05:47:30;;;;;;;7.07;4.38;;;;;;;11.84;100.00;94224.09;5095451;28;20133;-61
2021/08/03 05:49:57;;;;;;;6.45;4.60;;;;;;;11.94;100.00;94219.63;5094845;28;20046;-60
2021/08/03 05:52:26;;;;;;;7.85;4.55;;;;;;;12.03;100.00;94223.22;5084719;28;20425;-61
2021/08/03 05:54:51;;;;;;;5.40;4.15;;;;;;;12.11;100.00;94226.03;5092471;28;20072;-61
2021/08/03 05:57:24;;;;;;;5.72;4.30;;;;;;;12.20;100.00;94220.78;5094614;28;20696;-60
2021/08/03 05:59:49;;;;;;;6.80;4.55;;;;;;;12.29;100.00;94207.50;5093997;28;20107;-61
2021/08/03 06:02:17;;;;;;;6.57;4.30;;;;;;;12.36;100.00;94203.31;5094579;28;20619;-61
2021/08/03 06:04:43;;;;;;;8.50;4.57;;;;;;;12.48;100.00;94200.13;5094743;28;20046;-61
2021/08/03 06:07:10;;;;;;;7.95;4.80;;;;;;;12.60;100.00;94195.06;5094651;28;20028;-61
2021/08/03 06:09:36;;;;;;;4.97;3.85;;;;;;;12.68;100.00;94196.25;5094611;28;20386;-61
2021/08/03 06:12:02;;;;;;;5.05;4.05;;;;;;;12.64;100.00;94198.75;5094691;28;20075;-61
2021/08/03 06:14:41;;;;;;;6.50;4.15;;;;;;;12.50;100.00;94200.66;5094642;28;20042;-61
2021/08/03 06:17:15;;;;;;;5.55;4.10;;;;;;;12.47;100.00;94204.69;5076266;28;20498;-61
2021/08/03 06:19:52;;;;;;;5.15;3.58;;;;;;;12.46;100.00;94208.47;5082212;28;20036;-61
2021/08/03 06:22:18;;;;;;;6.18;3.60;;;;;;;12.39;100.00;94221.53;5094541;28;20032;-61
2021/08/03 06:24:48;;;;;;;5.18;3.47;;;;;;;12.43;100.00;94221.72;5094383;28;20024;-61
2021/08/03 06:27:16;;;;;;;4.82;3.35;;;;;;;12.48;100.00;94230.50;5076504;28;20016;-61
2021/08/03 06:29:46;;;;;;;5.95;3.50;;;;;;;12.58;100.00;94220.63;5075869;28;20032;-60
2021/08/03 06:32:14;;;;;;;4.45;3.30;;;;;;;12.70;100.00;94224.44;5094310;28;20382;-60
2021/08/03 06:34:43;;;;;;;5.18;3.25;;;;;;;13.18;100.00;94217.81;5076046;28;20065;-60
2021/08/03 06:37:10;;;;;;;6.63;3.83;;;;;;;13.59;100.00;94206.97;5094084;28;20027;-59
2021/08/03 06:39:46;;;;;;;7.70;3.13;;;;;;;13.93;100.00;94209.91;5094139;28;20367;-58
2021/08/03 06:42:34;;;;;;;4.55;3.15;;;;;;;14.25;100.00;94216.13;5093901;28;20053;-59
2021/08/03 06:45:03;;;;;;;7.10;3.22;;;;;;;14.38;100.00;94209.06;5076084;28;20055;-59
2021/08/03 06:47:44;;;;;;;4.93;3.20;;;;;;;14.48;100.00;94200.72;5093693;28;20031;-58
2021/08/03 06:50:15;;;;;;;4.97;2.95;;;;;;;14.61;100.00;94194.44;5093665;28;20032;-58
2021/08/03 06:52:43;;;;;;;4.28;3.10;;;;;;;14.78;100.00;94189.13;5093894;28;20023;-58
2021/08/03 06:55:12;;;;;;;5.65;3.20;;;;;;;15.00;100.00;94177.44;5093747;28;20081;-59
2021/08/03 06:57:45;;;;;;;5.43;3.00;;;;;;;15.17;100.00;94159.69;5093639;28;20026;-59
2021/08/03 07:00:10;;;;;;;3.85;2.80;;;;;;;15.34;100.00;94151.63;5075922;28;20039;-56
2021/08/03 07:02:41;;;;;;;4.03;2.90;;;;;;;15.56;100.00;94150.66;5093537;28;20024;-58
2021/08/03 07:05:11;;;;;;;6.13;3.33;;;;;;;15.67;100.00;94151.16;5075538;28;20078;-56
2021/08/03 07:07:43;;;;;;;4.20;2.78;;;;;;;15.84;100.00;94133.00;5093472;28;20460;-58
2021/08/03 07:10:09;;;;;;;4.28;2.90;;;;;;;16.03;100.00;94126.47;5093069;28;20035;-59
2021/08/03 07:12:35;;;;;;;4.30;3.08;;;;;;;16.16;100.00;94095.75;5093373;28;20032;-56
2021/08/03 07:15:10;;;;;;;6.10;3.00;;;;;;;16.29;100.00;94089.34;5075139;28;20478;-60
2021/08/03 07:17:41;;;;;;;3.88;2.90;;;;;;;16.51;100.00;94086.38;5088487;28;20097;-59
2021/08/03 07:20:10;;;;;;;4.80;2.95;;;;;;;16.86;100.00;94069.97;5077763;28;20486;-59
2021/08/03 07:22:38;;;;;;;6.13;3.10;;;;;;;17.36;100.00;94039.34;5049118;28;20028;-61
2021/08/03 07:25:11;;;;;;;3.42;2.70;;;;;;;17.84;100.00;94043.34;5092286;28;20072;-61
2021/08/03 07:27:36;;;;;;;4.35;2.90;;;;;;;17.93;100.00;94074.66;5090506;28;20028;-61
2021/08/03 07:30:23;;;;;;;2.30;2.03;;;;;;;17.98;100.00;94089.88;5092379;28;20036;-58
2021/08/03 07:32:48;;;;;;;5.85;2.88;;;;;;;18.02;100.00;94103.53;5074205;28;20494;-60
2021/08/03 07:35:13;;;;;;;4.60;2.50;;;;;;;18.08;100.00;94108.44;5084694;28;20051;-59
2021/08/03 07:37:46;;;;;;;3.83;2.75;;;;;;;18.19;100.00;94122.34;5088624;28;20121;-60
2021/08/03 07:40:12;;;;;;;2.95;2.42;;;;;;;18.37;100.00;94140.00;5073530;28;20028;-59
2021/08/03 07:42:40;;;;;;;5.32;2.65;;;;;;;18.43;100.00;94144.06;5075624;28;20105;-60
2021/08/03 07:45:06;;;;;;;3.78;2.85;;;;;;;18.60;100.00;94159.34;5072909;28;20028;-59
2021/08/03 07:47:33;;;;;;;4.63;3.25;;;;;;;18.61;100.00;94200.81;5069267;28;20110;-60
2021/08/03 07:50:01;;;;;;;6.13;3.25;;;;;;;18.67;100.00;94221.19;5071087;28;20023;-61
2021/08/03 07:52:27;;;;;;;6.38;3.25;;;;;;;18.88;100.00;94231.97;5050762;28;20542;-61
2021/08/03 07:54:52;;;;;;;5.35;3.38;;;;;;;19.28;100.00;94248.38;5071178;28;20035;-58
2021/08/03 07:57:17;;;;;;;5.55;3.53;;;;;;;19.38;100.00;94275.88;5070423;28;20017;-60
2021/08/03 07:59:43;;;;;;;4.22;3.30;;;;;;;19.76;100.00;94337.25;5076577;28;20098;-58
2021/08/03 08:02:14;;;;;;;8.05;3.85;;;;;;;19.86;100.00;94390.31;5054268;28;20032;-64
2021/08/03 08:04:40;;;;;;;5.07;2.90;;;;;;;20.08;100.00;94391.78;5036745;28;20503;-60
2021/08/03 08:07:05;;;;;;;4.60;3.30;;;;;;;20.16;100.00;94437.91;5072923;28;20056;-59
2021/08/03 08:09:33;;;;;;;4.78;3.35;;;;;;;20.26;100.00;94497.25;5055904;28;20543;-58
2021/08/03 08:11:58;;;;;;;3.55;3.10;;;;;;;20.18;100.00;94519.91;5087901;28;20020;-58
2021/08/03 08:14:25;;;;;;;5.00;3.03;;;;;;;20.22;100.00;94547.25;5087942;28;20039;-60
2021/08/03 08:16:51;;;;;;;2.88;2.60;;;;;;;20.34;100.00;94570.94;5071467;28;20417;-60
2021/08/03 08:19:40;;;;;;;4.50;3.13;;;;;;;20.17;100.00;94591.75;5074266;28;20048;-59
2021/08/03 08:22:17;;;;;;;4.85;3.28;;;;;;;20.17;100.00;94591.75;5071475;28;20032;-61
2021/08/03 08:24:45;;;;;;;6.68;2.70;;;;;;;20.36;100.00;94587.69;5074114;28;20058;-64
2021/08/03 08:27:16;;;;;;;6.38;3.08;;;;;;;20.44;100.00;94608.59;5072607;28;20039;-61
2021/08/03 08:29:41;;;;;;;3.88;2.95;;;;;;;20.38;100.00;94656.16;5071227;28;20025;-60
2021/08/03 08:32:10;;;;;;;3.78;2.63;;;;;;;20.16;100.00;94652.69;5077875;28;20055;-62
2021/08/03 08:34:42;;;;;;;3.30;2.53;;;;;;;20.08;100.00;94620.97;5089054;28;20088;-63
2021/08/03 08:37:07;;;;;;;4.43;2.80;;;;;;;20.43;100.00;94596.13;5057404;28;20364;-61
2021/08/03 08:39:40;;;;;;;3.45;2.83;;;;;;;20.82;100.00;94619.94;5083182;28;20081;-63
2021/08/03 08:42:15;;;;;;;;;;;;;;;20.91;100.00;94657.94;5075892;28;20024;-63
2021/08/03 08:44:48;;;;;;;5.13;2.97;;;;;;;21.04;100.00;94702.28;5075544;28;19908;-63
2021/08/03 08:47:24;;;;;;;8.48;3.42;;;;;;;21.12;100.00;94713.09;5075398;28;20055;-63
2021/08/03 08:49:50;;;;;;;5.45;3.53;;;;;;;21.23;100.00;94696.28;5093247;28;20020;-62
2021/08/03 08:52:16;;;;;;;4.50;3.00;;;;;;;20.99;100.00;94699.81;5066282;28;20497;-63
2021/08/03 08:54:47;;;;;;;5.20;3.33;;;;;;;20.92;100.00;94715.91;5070055;28;20457;-63
2021/08/03 08:57:13;;;;;;;4.10;3.03;;;;;;;20.83;100.00;94703.19;5076847;28;20032;-63
2021/08/03 08:59:42;;;;;;;4.88;2.88;;;;;;;20.88;100.00;94721.25;5073937;28;20033;-65
2021/08/03 09:02:10;;;;;;;4.47;2.55;;;;;;;20.71;100.00;94729.59;5092104;28;20428;-63
2021/08/03 09:04:45;;;;;;;3.88;2.75;;;;;;;20.60;100.00;94704.75;5091838;28;20031;-62
2021/08/03 09:07:11;;;;;;;3.17;2.42;;;;;;;20.68;100.00;94714.75;5080707;28;20021;-63
2021/08/03 09:09:45;;;;;;;4.25;2.40;;;;;;;20.92;100.00;94707.75;5075047;28;20020;-63
2021/08/03 09:12:13;;;;;;;3.50;2.10;;;;;;;21.06;100.00;94740.91;5092362;28;20482;-63
2021/08/03 09:14:41;;;;;;;3.33;2.50;;;;;;;21.19;100.00;94775.16;5073762;28;20081;-63
2021/08/03 09:17:08;;;;;;;3.78;3.08;;;;;;;21.27;100.00;94781.66;5081353;28;20060;-63
2021/08/03 09:19:41;;;;;;;3.67;2.40;;;;;;;21.45;100.00;94802.09;5091324;28;20395;-62
2021/08/03 09:22:13;;;;;;;6.05;2.30;;;;;;;21.35;100.00;94805.28;5091961;28;20016;-63
2021/08/03 09:24:45;;;;;;;3.63;2.50;;;;;;;21.27;100.00;94800.72;5091925;28;20455;-62
2021/08/03 09:27:43;;;;;;;3.00;2.47;;;;;;;21.40;100.00;94815.97;5057749;28;20032;-60
2021/08/03 09:30:22;;;;;;;3.50;2.50;;;;;;;21.55;100.00;94803.59;5066696;28;20047;-63
2021/08/03 09:32:56;;;;;;;5.38;2.55;;;;;;;22.25;100.00;94836.91;5074714;28;20024;-63
2021/08/03 09:35:26;;;;;;;2.58;2.28;;;;;;;22.60;100.00;94901.91;5095453;28;20024;-63
2021/08/03 09:37:52;;;;;;;3.03;2.10;;;;;;;23.19;100.00;94944.97;5090154;28;20028;-62
2021/08/03 09:40:31;;;;;;;5.40;2.10;;;;;;;23.23;100.00;94981.34;5091310;28;20016;-63
2021/08/03 09:42:59;;;;;;;3.28;2.45;;;;;;;23.76;100.00;94982.03;5077360;28;20047;-63
2021/08/03 09:45:42;;;;;;;2.80;2.30;;;;;;;23.97;100.00;95070.13;5095245;28;20028;-63
2021/08/03 09:48:11;;;;;;;3.75;2.35;;;;;;;23.98;100.00;95055.31;5087229;28;20024;-61
2021/08/03 09:51:06;;;;;;;3.35;2.28;;;;;;;24.14;100.00;95083.50;5095211;28;20024;-63
2021/08/03 09:53:50;;;;;;;2.55;2.08;;;;;;;24.32;100.00;95154.38;5062689;28;20127;-62
2021/08/03 09:56:34;;;;;;;2.95;1.95;;;;;;;24.42;100.00;95115.50;5089162;28;20101;-60
2021/08/03 09:59:03;;;;;;;2.03;1.90;;;;;;;24.90;100.00;95124.53;5076283;28;20024;-60
2021/08/03 10:01:37;;;;;;;3.00;1.60;;;;;;;25.02;100.00;95193.78;5095051;28;20024;-61
2021/08/03 10:04:15;;;;;;;2.15;1.90;;;;;;;24.89;100.00;95151.16;5094951;28;20051;-63
2021/08/03 10:06:44;;;;;;;1.98;1.70;;;;;;;24.64;100.00;95161.50;5072212;28;20384;-63
2021/08/03 10:09:12;;;;;;;2.10;1.90;;;;;;;25.20;100.00;95153.09;5089707;28;20016;-62
2021/08/03 10:11:40;;;;;;;2.28;1.85;;;;;;;25.20;100.00;95237.28;5094765;28;20023;-61
2021/08/03 10:14:12;;;;;;;4.13;1.67;;;;;;;24.69;100.00;95226.97;5094741;28;20028;-60
2021/08/03 10:16:37;;;;;;;2.25;1.80;;;;;;;24.52;100.00;95213.56;5094953;22;20450;-63
2021/08/03 10:19:06;;;;;;;2.15;1.70;;;;;;;24.48;100.00;95204.47;5044690;28;20044;-63
2021/08/03 10:21:35;;;;;;;2.42;2.05;;;;;;;24.57;100.00;95205.91;5054283;28;20151;-63
2021/08/03 10:24:21;;;;;;;2.28;2.00;;;;;;;25.07;100.00;95199.00;5033433;28;20025;-63
2021/08/03 10:27:09;;;;;;;1.67;1.58;;;;;;;25.18;100.00;95269.72;5058494;28;20024;-63
2021/08/03 10:29:58;;;;;;;2.25;1.80;;;;;;;24.81;100.00;95248.00;5053996;28;20020;-63
2021/08/03 10:32:44;;;;;;;2.30;1.70;;;;;;;24.49;100.00;95228.78;5063315;28;20369;-63
2021/08/03 10:35:13;;;;;;;1.42;1.30;;;;;;;24.03;100.00;95224.72;5073799;28;20085;-63
2021/08/03 10:37:57;;;;;;;2.40;1.52;;;;;;;23.82;100.00;95117.41;5060509;28;20020;-63
2021/08/03 10:40:44;;;;;;;2.30;2.00;;;;;;;23.82;100.00;95120.16;5055944;28;20031;-63
2021/08/03 10:43:20;;;;;;;2.72;1.90;;;;;;;23.93;100.00;95105.63;5065428;28;20044;-63
2021/08/03 10:45:47;;;;;;;3.83;1.90;;;;;;;24.41;100.00;95139.38;5072823;28;20268;-63
2021/08/03 10:48:42;;;;;;;2.13;1.92;;;;;;;25.21;100.00;95157.44;5073658;28;20463;-63
2021/08/03 10:51:13;;;;;;;2.95;1.90;;;;;;;25.05;100.00;95206.75;5073711;28;20066;-63
2021/08/03 10:53:57;;;;;;;3.25;2.15;;;;;;;25.15;100.00;95165.09;5059651;28;20036;-63
2021/08/03 10:56:22;;;;;;;3.97;2.10;;;;;;;25.53;100.00;95204.78;5072922;28;20056;-63
2021/08/03 10:59:32;;;;;;;2.90;2.00;;;;;;;26.10;100.00;95251.91;5042915;28;20517;-63
2021/08/03 11:02:42;;;;;;;4.20;2.17;;;;;;;26.46;97.18;95300.94;5073484;28;20369;-63
2021/08/03 11:05:26;;;;;;;2.97;1.70;;;;;;;26.34;100.00;95275.53;5073345;28;20107;-63
2021/08/03 11:07:52;;;;;;;2.28;2.08;;;;;;;26.15;100.00;95257.09;5062269;28;20028;-63
2021/08/03 11:10:21;;;;;;;2.33;2.00;;;;;;;25.59;100.00;95214.31;5071598;28;20490;-63
2021/08/03 11:12:49;;;;;;;2.95;1.90;;;;;;;25.25;100.00;95215.06;5053027;28;20429;-63
2021/08/03 11:15:22;;;;;;;2.40;1.95;;;;;;;25.22;100.00;95229.50;5073132;28;20095;-63
2021/08/03 11:17:49;;;;;;;2.38;2.00;;;;;;;25.02;100.00;95229.41;5072859;28;20552;-63
2021/08/03 11:20:50;;;;;;;2.08;1.63;;;;;;;24.55;100.00;95180.81;5055300;28;20497;-63
2021/08/03 11:23:17;;;;;;;1.67;1.58;;;;;;;24.37;100.00;95116.59;4967830;28;20031;-64
2021/08/03 11:25:45;;;;;;;2.17;1.73;;;;;;;24.07;100.00;95124.34;5034601;28;20044;-64
2021/08/03 11:28:11;;;;;;;3.03;1.83;;;;;;;23.84;100.00;95106.91;5067837;28;20027;-64
2021/08/03 11:30:46;;;;;;;4.78;1.73;;;;;;;23.77;100.00;95103.97;5055110;28;20028;-64
2021/08/03 11:33:15;;;;;;;1.73;1.42;;;;;;;23.81;100.00;95133.03;5072238;28;20062;-64
2021/08/03 11:35:42;;;;;;;2.08;1.40;;;;;;;23.76;100.00;95149.66;5071139;28;20145;-64
2021/08/03 11:38:10;;;;;;;3.45;1.58;;;;;;;24.12;100.00;95172.59;5072082;28;20027;-64
2021/08/03 11:40:41;;;;;;;2.35;1.40;;;;;;;24.36;100.00;95207.28;5072488;28;20024;-64
2021/08/03 11:43:07;;;;;;;2.95;1.55;;;;;;;24.53;100.00;95229.69;5067294;28;20027;-64
2021/08/03 11:45:53;;;;;;;1.77;1.30;;;;;;;24.60;92.94;95286.56;5072704;28;20028;-64
2021/08/03 11:48:24;;;;;;;2.90;1.30;;;;;;;24.68;93.80;95287.56;5072620;28;20111;-64
2021/08/03 11:50:50;;;;;;;2.65;1.40;;;;;;;24.26;96.65;95283.25;5072884;28;20025;-64